sensor_id;sensor_type;location;lat;lon;timestamp;P1;durP1;ratioP1;P2;durP2;ratioP2
43435;SDS011;36399;51.444;-2.018;2023-02-23T00:02:48;22.90;;;10.57;;
43435;SDS011;36399;51.444;-2.018;2023-02-23T00:05:15;22.20;;;9.73;;
43435;SDS011;36399;51.444;-2.018;2023-02-23T00:07:42;22.30;;;10.90;;
43435;SDS011;36399;51.444;-2.018;2023-02-23T00:10:10;25.53;;;10.53;;
43435;SDS011;36399;51.444;-2.018;2023-02-23T00:12:39;25.50;;;10.57;;
43435;SDS011;36399;51.444;-2.018;2023-02-23T00:15:07;23.70;;;10.87;;
43435;SDS011;36399;51.444;-2.018;2023-02-23T00:17:34;28.03;;;11.30;;
43435;SDS011;36399;51.444;-2.018;2023-02-23T00:20:06;27.03;;;11.07;;
43435;SDS011;36399;51.444;-2.018;2023-02-23T00:22:37;25.13;;;11.13;;
43435;SDS011;36399;51.444;-2.018;2023-02-23T00:25:05;28.27;;;11.73;;
43435;SDS011;36399;51.444;-2.018;2023-02-23T00:27:34;26.53;;;10.77;;
43435;SDS011;36399;51.444;-2.018;2023-02-23T00:30:03;23.93;;;10.63;;
43435;SDS011;36399;51.444;-2.018;2023-02-23T00:32:30;28.97;;;12.40;;
43435;SDS011;36399;51.444;-2.018;2023-02-23T00:34:59;21.00;;;10.50;;
43435;SDS011;36399;51.444;-2.018;2023-02-23T00:37:25;25.00;;;11.70;;
43435;SDS011;36399;51.444;-2.018;2023-02-23T00:39:53;27.07;;;11.10;;
43435;SDS011;36399;51.444;-2.018;2023-02-23T00:42:22;25.70;;;11.10;;
43435;SDS011;36399;51.444;-2.018;2023-02-23T00:44:49;19.80;;;9.37;;
43435;SDS011;36399;51.444;-2.018;2023-02-23T00:47:18;26.03;;;10.57;;
43435;SDS011;36399;51.444;-2.018;2023-02-23T00:49:44;26.00;;;9.87;;
43435;SDS011;36399;51.444;-2.018;2023-02-23T00:52:11;22.97;;;10.03;;
43435;SDS011;36399;51.444;-2.018;2023-02-23T00:57:15;21.93;;;9.13;;
43435;SDS011;36399;51.444;-2.018;2023-02-23T00:59:42;18.93;;;8.93;;
43435;SDS011;36399;51.444;-2.018;2023-02-23T01:02:08;23.40;;;9.43;;
43435;SDS011;36399;51.444;-2.018;2023-02-23T01:04:37;22.23;;;9.53;;
43435;SDS011;36399;51.444;-2.018;2023-02-23T01:07:03;20.80;;;9.93;;
43435;SDS011;36399;51.444;-2.018;2023-02-23T01:09:31;20.00;;;9.50;;
43435;SDS011;36399;51.444;-2.018;2023-02-23T01:12:00;18.00;;;8.57;;
43435;SDS011;36399;51.444;-2.018;2023-02-23T01:14:27;23.20;;;8.70;;
43435;SDS011;36399;51.444;-2.018;2023-02-23T01:16:56;21.33;;;9.53;;
43435;SDS011;36399;51.444;-2.018;2023-02-23T01:19:22;20.13;;;9.23;;
43435;SDS011;36399;51.444;-2.018;2023-02-23T01:21:48;20.13;;;9.33;;
43435;SDS011;36399;51.444;-2.018;2023-02-23T01:24:15;17.90;;;8.57;;
43435;SDS011;36399;51.444;-2.018;2023-02-23T01:26:42;21.23;;;8.47;;
43435;SDS011;36399;51.444;-2.018;2023-02-23T01:29:16;21.47;;;8.87;;
43435;SDS011;36399;51.444;-2.018;2023-02-23T01:31:44;17.13;;;8.25;;
43435;SDS011;36399;51.444;-2.018;2023-02-23T01:34:13;17.93;;;8.63;;
43435;SDS011;36399;51.444;-2.018;2023-02-23T01:36:42;18.23;;;8.50;;
43435;SDS011;36399;51.444;-2.018;2023-02-23T01:39:10;17.13;;;8.10;;
43435;SDS011;36399;51.444;-2.018;2023-02-23T01:41:38;20.27;;;8.93;;
43435;SDS011;36399;51.444;-2.018;2023-02-23T01:44:08;13.60;;;7.67;;
43435;SDS011;36399;51.444;-2.018;2023-02-23T01:46:55;16.23;;;7.40;;
43435;SDS011;36399;51.444;-2.018;2023-02-23T01:49:23;11.93;;;6.13;;
43435;SDS011;36399;51.444;-2.018;2023-02-23T01:51:56;13.30;;;6.37;;
43435;SDS011;36399;51.444;-2.018;2023-02-23T01:54:30;11.10;;;6.03;;
43435;SDS011;36399;51.444;-2.018;2023-02-23T01:57:01;9.20;;;4.77;;
43435;SDS011;36399;51.444;-2.018;2023-02-23T01:59:33;10.43;;;5.43;;
43435;SDS011;36399;51.444;-2.018;2023-02-23T02:02:11;11.40;;;5.13;;
43435;SDS011;36399;51.444;-2.018;2023-02-23T02:04:39;10.90;;;4.60;;
43435;SDS011;36399;51.444;-2.018;2023-02-23T02:07:17;12.23;;;5.53;;
43435;SDS011;36399;51.444;-2.018;2023-02-23T02:09:48;8.63;;;4.67;;
43435;SDS011;36399;51.444;-2.018;2023-02-23T02:15:13;8.97;;;4.10;;
43435;SDS011;36399;51.444;-2.018;2023-02-23T02:26:25;11.27;;;4.87;;
43435;SDS011;36399;51.444;-2.018;2023-02-23T02:31:56;8.57;;;4.27;;
43435;SDS011;36399;51.444;-2.018;2023-02-23T02:43:24;10.57;;;4.53;;
43435;SDS011;36399;51.444;-2.018;2023-02-23T02:51:13;10.73;;;4.73;;
43435;SDS011;36399;51.444;-2.018;2023-02-23T02:56:41;11.27;;;5.10;;
43435;SDS011;36399;51.444;-2.018;2023-02-23T03:21:49;7.00;;;4.07;;
43435;SDS011;36399;51.444;-2.018;2023-02-23T03:24:47;7.07;;;3.47;;
43435;SDS011;36399;51.444;-2.018;2023-02-23T03:30:50;7.83;;;3.30;;
43435;SDS011;36399;51.444;-2.018;2023-02-23T03:33:56;6.80;;;2.67;;
43435;SDS011;36399;51.444;-2.018;2023-02-23T03:36:56;6.90;;;3.43;;
43435;SDS011;36399;51.444;-2.018;2023-02-23T03:39:54;6.80;;;3.30;;
43435;SDS011;36399;51.444;-2.018;2023-02-23T03:42:46;6.93;;;3.73;;
43435;SDS011;36399;51.444;-2.018;2023-02-23T03:45:35;6.10;;;2.60;;
43435;SDS011;36399;51.444;-2.018;2023-02-23T03:48:21;13.17;;;4.10;;
43435;SDS011;36399;51.444;-2.018;2023-02-23T03:51:08;6.70;;;3.60;;
43435;SDS011;36399;51.444;-2.018;2023-02-23T03:54:01;6.57;;;3.20;;
43435;SDS011;36399;51.444;-2.018;2023-02-23T03:57:01;7.50;;;2.90;;
43435;SDS011;36399;51.444;-2.018;2023-02-23T03:59:54;10.63;;;3.53;;
43435;SDS011;36399;51.444;-2.018;2023-02-23T04:02:43;5.65;;;3.35;;
43435;SDS011;36399;51.444;-2.018;2023-02-23T04:05:30;6.90;;;3.40;;
43435;SDS011;36399;51.444;-2.018;2023-02-23T04:08:17;6.20;;;3.87;;
43435;SDS011;36399;51.444;-2.018;2023-02-23T04:11:15;7.33;;;3.00;;
43435;SDS011;36399;51.444;-2.018;2023-02-23T04:14:06;6.57;;;3.27;;
43435;SDS011;36399;51.444;-2.018;2023-02-23T04:16:41;7.07;;;3.33;;
43435;SDS011;36399;51.444;-2.018;2023-02-23T04:19:07;8.37;;;3.33;;
43435;SDS011;36399;51.444;-2.018;2023-02-23T04:21:33;12.67;;;3.80;;
43435;SDS011;36399;51.444;-2.018;2023-02-23T04:23:59;7.73;;;3.57;;
43435;SDS011;36399;51.444;-2.018;2023-02-23T04:26:25;6.40;;;3.60;;
43435;SDS011;36399;51.444;-2.018;2023-02-23T04:28:51;10.37;;;5.17;;
43435;SDS011;36399;51.444;-2.018;2023-02-23T04:31:17;6.27;;;3.13;;
43435;SDS011;36399;51.444;-2.018;2023-02-23T04:33:43;7.63;;;3.87;;
43435;SDS011;36399;51.444;-2.018;2023-02-23T04:36:09;7.53;;;3.70;;
43435;SDS011;36399;51.444;-2.018;2023-02-23T04:38:35;8.57;;;3.30;;
43435;SDS011;36399;51.444;-2.018;2023-02-23T04:41:01;7.33;;;3.43;;
43435;SDS011;36399;51.444;-2.018;2023-02-23T04:43:27;7.50;;;3.43;;
43435;SDS011;36399;51.444;-2.018;2023-02-23T04:45:53;8.77;;;3.67;;
43435;SDS011;36399;51.444;-2.018;2023-02-23T04:48:19;6.50;;;2.70;;
43435;SDS011;36399;51.444;-2.018;2023-02-23T04:50:45;8.57;;;4.00;;
43435;SDS011;36399;51.444;-2.018;2023-02-23T04:53:11;10.00;;;3.50;;
43435;SDS011;36399;51.444;-2.018;2023-02-23T04:55:37;8.10;;;3.93;;
43435;SDS011;36399;51.444;-2.018;2023-02-23T04:58:03;12.10;;;5.23;;
43435;SDS011;36399;51.444;-2.018;2023-02-23T05:00:29;8.00;;;3.93;;
43435;SDS011;36399;51.444;-2.018;2023-02-23T05:02:56;10.60;;;4.43;;
43435;SDS011;36399;51.444;-2.018;2023-02-23T05:05:22;7.73;;;4.20;;
43435;SDS011;36399;51.444;-2.018;2023-02-23T05:07:48;11.37;;;4.63;;
43435;SDS011;36399;51.444;-2.018;2023-02-23T05:10:14;9.33;;;4.40;;
43435;SDS011;36399;51.444;-2.018;2023-02-23T05:12:40;11.63;;;4.93;;
43435;SDS011;36399;51.444;-2.018;2023-02-23T05:15:06;8.53;;;4.77;;
43435;SDS011;36399;51.444;-2.018;2023-02-23T05:17:32;6.73;;;3.80;;
43435;SDS011;36399;51.444;-2.018;2023-02-23T05:19:58;9.77;;;4.13;;
43435;SDS011;36399;51.444;-2.018;2023-02-23T05:22:24;8.23;;;4.23;;
43435;SDS011;36399;51.444;-2.018;2023-02-23T05:24:50;7.73;;;3.57;;
43435;SDS011;36399;51.444;-2.018;2023-02-23T05:27:16;8.83;;;4.67;;
43435;SDS011;36399;51.444;-2.018;2023-02-23T05:29:42;10.03;;;4.13;;
43435;SDS011;36399;51.444;-2.018;2023-02-23T05:32:08;6.03;;;3.67;;
43435;SDS011;36399;51.444;-2.018;2023-02-23T05:34:34;6.43;;;3.90;;
43435;SDS011;36399;51.444;-2.018;2023-02-23T05:37:01;8.47;;;4.37;;
43435;SDS011;36399;51.444;-2.018;2023-02-23T05:39:27;7.03;;;4.50;;
43435;SDS011;36399;51.444;-2.018;2023-02-23T05:41:53;8.90;;;3.93;;
43435;SDS011;36399;51.444;-2.018;2023-02-23T05:44:19;8.10;;;4.97;;
43435;SDS011;36399;51.444;-2.018;2023-02-23T05:46:45;6.40;;;3.60;;
43435;SDS011;36399;51.444;-2.018;2023-02-23T05:49:14;9.37;;;5.13;;
43435;SDS011;36399;51.444;-2.018;2023-02-23T05:51:40;7.33;;;3.50;;
43435;SDS011;36399;51.444;-2.018;2023-02-23T05:54:07;9.93;;;4.33;;
43435;SDS011;36399;51.444;-2.018;2023-02-23T05:56:35;7.13;;;3.40;;
43435;SDS011;36399;51.444;-2.018;2023-02-23T05:59:01;7.93;;;4.40;;
43435;SDS011;36399;51.444;-2.018;2023-02-23T06:01:29;8.27;;;4.23;;
43435;SDS011;36399;51.444;-2.018;2023-02-23T06:03:55;9.83;;;3.53;;
43435;SDS011;36399;51.444;-2.018;2023-02-23T06:06:21;8.00;;;3.23;;
43435;SDS011;36399;51.444;-2.018;2023-02-23T06:08:48;6.40;;;2.70;;
43435;SDS011;36399;51.444;-2.018;2023-02-23T06:11:14;6.13;;;3.53;;
43435;SDS011;36399;51.444;-2.018;2023-02-23T06:13:42;0.20;;;0.10;;
43435;SDS011;36399;51.444;-2.018;2023-02-23T06:16:08;0.17;;;0.17;;
43435;SDS011;36399;51.444;-2.018;2023-02-23T06:18:36;0.63;;;0.63;;
43435;SDS011;36399;51.444;-2.018;2023-02-23T06:21:02;0.10;;;0.10;;
43435;SDS011;36399;51.444;-2.018;2023-02-23T06:23:31;0.10;;;0.10;;
43435;SDS011;36399;51.444;-2.018;2023-02-23T06:25:58;0.67;;;0.67;;
43435;SDS011;36399;51.444;-2.018;2023-02-23T06:28:25;0.00;;;0.00;;
43435;SDS011;36399;51.444;-2.018;2023-02-23T06:30:52;1.60;;;1.50;;
43435;SDS011;36399;51.444;-2.018;2023-02-23T06:33:18;0.10;;;0.10;;
43435;SDS011;36399;51.444;-2.018;2023-02-23T06:35:45;0.10;;;0.10;;
43435;SDS011;36399;51.444;-2.018;2023-02-23T06:38:11;1.33;;;1.33;;
43435;SDS011;36399;51.444;-2.018;2023-02-23T06:40:37;2.73;;;1.97;;
43435;SDS011;36399;51.444;-2.018;2023-02-23T06:43:04;0.23;;;0.23;;
43435;SDS011;36399;51.444;-2.018;2023-02-23T06:45:30;0.83;;;0.83;;
43435;SDS011;36399;51.444;-2.018;2023-02-23T06:48:00;5.80;;;2.20;;
43435;SDS011;36399;51.444;-2.018;2023-02-23T06:50:26;1.70;;;1.07;;
43435;SDS011;36399;51.444;-2.018;2023-02-23T06:52:52;0.00;;;0.00;;
43435;SDS011;36399;51.444;-2.018;2023-02-23T06:55:18;0.20;;;0.20;;
43435;SDS011;36399;51.444;-2.018;2023-02-23T06:57:47;0.20;;;0.20;;
43435;SDS011;36399;51.444;-2.018;2023-02-23T07:00:13;0.00;;;0.00;;
43435;SDS011;36399;51.444;-2.018;2023-02-23T07:02:42;0.10;;;0.10;;
43435;SDS011;36399;51.444;-2.018;2023-02-23T07:05:09;0.13;;;0.13;;
43435;SDS011;36399;51.444;-2.018;2023-02-23T07:07:36;0.67;;;0.63;;
43435;SDS011;36399;51.444;-2.018;2023-02-23T07:10:03;0.10;;;0.10;;
43435;SDS011;36399;51.444;-2.018;2023-02-23T07:12:30;0.97;;;0.97;;
43435;SDS011;36399;51.444;-2.018;2023-02-23T07:14:56;5.43;;;3.57;;
43435;SDS011;36399;51.444;-2.018;2023-02-23T07:17:22;0.10;;;0.10;;
43435;SDS011;36399;51.444;-2.018;2023-02-23T07:19:48;0.00;;;0.00;;
43435;SDS011;36399;51.444;-2.018;2023-02-23T07:22:14;1.30;;;1.20;;
43435;SDS011;36399;51.444;-2.018;2023-02-23T07:24:40;0.00;;;0.00;;
43435;SDS011;36399;51.444;-2.018;2023-02-23T07:27:06;0.20;;;0.20;;
43435;SDS011;36399;51.444;-2.018;2023-02-23T07:29:32;0.00;;;0.00;;
43435;SDS011;36399;51.444;-2.018;2023-02-23T07:31:58;0.57;;;0.57;;
43435;SDS011;36399;51.444;-2.018;2023-02-23T07:34:25;1.23;;;1.13;;
43435;SDS011;36399;51.444;-2.018;2023-02-23T07:36:54;0.10;;;0.10;;
43435;SDS011;36399;51.444;-2.018;2023-02-23T07:39:21;3.80;;;0.83;;
43435;SDS011;36399;51.444;-2.018;2023-02-23T07:41:47;1.17;;;0.33;;
43435;SDS011;36399;51.444;-2.018;2023-02-23T07:44:14;0.00;;;0.00;;
43435;SDS011;36399;51.444;-2.018;2023-02-23T07:46:39;0.43;;;0.43;;
43435;SDS011;36399;51.444;-2.018;2023-02-23T07:49:06;0.10;;;0.10;;
43435;SDS011;36399;51.444;-2.018;2023-02-23T07:51:32;0.07;;;0.07;;
43435;SDS011;36399;51.444;-2.018;2023-02-23T07:54:01;0.50;;;0.50;;
43435;SDS011;36399;51.444;-2.018;2023-02-23T07:56:29;0.20;;;0.20;;
43435;SDS011;36399;51.444;-2.018;2023-02-23T07:58:55;0.00;;;0.00;;
43435;SDS011;36399;51.444;-2.018;2023-02-23T08:01:21;1.60;;;1.50;;
43435;SDS011;36399;51.444;-2.018;2023-02-23T08:03:48;0.70;;;0.70;;
43435;SDS011;36399;51.444;-2.018;2023-02-23T08:06:15;0.77;;;0.77;;
43435;SDS011;36399;51.444;-2.018;2023-02-23T08:08:42;0.57;;;0.57;;
43435;SDS011;36399;51.444;-2.018;2023-02-23T08:11:08;0.20;;;0.20;;
43435;SDS011;36399;51.444;-2.018;2023-02-23T08:13:35;0.27;;;0.27;;
43435;SDS011;36399;51.444;-2.018;2023-02-23T08:16:01;1.17;;;0.63;;
43435;SDS011;36399;51.444;-2.018;2023-02-23T08:18:27;7.30;;;0.97;;
43435;SDS011;36399;51.444;-2.018;2023-02-23T08:21:00;0.00;;;0.00;;
43435;SDS011;36399;51.444;-2.018;2023-02-23T08:23:30;2.20;;;0.67;;
43435;SDS011;36399;51.444;-2.018;2023-02-23T08:25:58;0.03;;;0.03;;
43435;SDS011;36399;51.444;-2.018;2023-02-23T08:28:24;1.37;;;1.27;;
43435;SDS011;36399;51.444;-2.018;2023-02-23T08:30:51;0.83;;;0.30;;
43435;SDS011;36399;51.444;-2.018;2023-02-23T08:33:17;0.10;;;0.10;;
43435;SDS011;36399;51.444;-2.018;2023-02-23T08:35:43;1.70;;;0.53;;
43435;SDS011;36399;51.444;-2.018;2023-02-23T08:38:09;1.30;;;0.63;;
43435;SDS011;36399;51.444;-2.018;2023-02-23T08:40:35;0.70;;;0.70;;
43435;SDS011;36399;51.444;-2.018;2023-02-23T08:43:01;0.30;;;0.30;;
43435;SDS011;36399;51.444;-2.018;2023-02-23T08:45:27;0.77;;;0.77;;
43435;SDS011;36399;51.444;-2.018;2023-02-23T08:47:54;0.10;;;0.10;;
43435;SDS011;36399;51.444;-2.018;2023-02-23T08:50:21;0.00;;;0.00;;
43435;SDS011;36399;51.444;-2.018;2023-02-23T08:52:47;0.23;;;0.23;;
43435;SDS011;36399;51.444;-2.018;2023-02-23T08:55:13;0.00;;;0.00;;
43435;SDS011;36399;51.444;-2.018;2023-02-23T08:57:41;0.93;;;0.93;;
43435;SDS011;36399;51.444;-2.018;2023-02-23T09:00:07;2.63;;;2.00;;
43435;SDS011;36399;51.444;-2.018;2023-02-23T09:02:39;0.67;;;0.53;;
43435;SDS011;36399;51.444;-2.018;2023-02-23T09:05:06;6.17;;;1.87;;
43435;SDS011;36399;51.444;-2.018;2023-02-23T09:07:32;0.40;;;0.40;;
43435;SDS011;36399;51.444;-2.018;2023-02-23T09:09:58;0.47;;;0.47;;
43435;SDS011;36399;51.444;-2.018;2023-02-23T09:12:24;8.20;;;3.23;;
43435;SDS011;36399;51.444;-2.018;2023-02-23T09:14:50;6.20;;;2.33;;
43435;SDS011;36399;51.444;-2.018;2023-02-23T09:17:18;10.97;;;4.37;;
43435;SDS011;36399;51.444;-2.018;2023-02-23T09:19:45;9.07;;;2.90;;
43435;SDS011;36399;51.444;-2.018;2023-02-23T09:22:11;8.17;;;2.70;;
43435;SDS011;36399;51.444;-2.018;2023-02-23T09:24:37;10.80;;;2.63;;
43435;SDS011;36399;51.444;-2.018;2023-02-23T09:32:15;6.77;;;1.57;;
43435;SDS011;36399;51.444;-2.018;2023-02-23T09:48:41;4.23;;;1.33;;
43435;SDS011;36399;51.444;-2.018;2023-02-23T09:51:14;4.17;;;2.07;;
43435;SDS011;36399;51.444;-2.018;2023-02-23T09:58:54;5.97;;;2.10;;
43435;SDS011;36399;51.444;-2.018;2023-02-23T10:04:16;5.40;;;1.40;;
43435;SDS011;36399;51.444;-2.018;2023-02-23T10:36:56;15.97;;;1.83;;
43435;SDS011;36399;51.444;-2.018;2023-02-23T10:39:30;7.10;;;2.70;;
43435;SDS011;36399;51.444;-2.018;2023-02-23T10:41:58;11.87;;;2.70;;
43435;SDS011;36399;51.444;-2.018;2023-02-23T10:44:26;15.40;;;2.77;;
43435;SDS011;36399;51.444;-2.018;2023-02-23T10:47:39;8.43;;;2.17;;
43435;SDS011;36399;51.444;-2.018;2023-02-23T10:49:52;3.00;;;1.40;;
43435;SDS011;36399;51.444;-2.018;2023-02-23T10:52:30;5.83;;;1.90;;
43435;SDS011;36399;51.444;-2.018;2023-02-23T10:55:05;11.20;;;2.60;;
43435;SDS011;36399;51.444;-2.018;2023-02-23T10:57:33;11.87;;;2.63;;
43435;SDS011;36399;51.444;-2.018;2023-02-23T11:02:41;11.83;;;2.40;;
43435;SDS011;36399;51.444;-2.018;2023-02-23T11:08:17;12.55;;;3.03;;
43435;SDS011;36399;51.444;-2.018;2023-02-23T11:10:56;8.23;;;2.73;;
43435;SDS011;36399;51.444;-2.018;2023-02-23T11:13:27;6.73;;;3.10;;
43435;SDS011;36399;51.444;-2.018;2023-02-23T11:15:58;8.83;;;2.80;;
43435;SDS011;36399;51.444;-2.018;2023-02-23T11:18:30;9.23;;;2.47;;
43435;SDS011;36399;51.444;-2.018;2023-02-23T11:20:57;8.50;;;1.90;;
43435;SDS011;36399;51.444;-2.018;2023-02-23T11:23:24;6.90;;;2.87;;
43435;SDS011;36399;51.444;-2.018;2023-02-23T11:25:57;8.87;;;2.17;;
43435;SDS011;36399;51.444;-2.018;2023-02-23T11:28:28;8.63;;;1.67;;
43435;SDS011;36399;51.444;-2.018;2023-02-23T11:31:16;4.43;;;1.60;;
43435;SDS011;36399;51.444;-2.018;2023-02-23T11:33:45;9.77;;;3.70;;
43435;SDS011;36399;51.444;-2.018;2023-02-23T11:36:17;12.47;;;2.30;;
43435;SDS011;36399;51.444;-2.018;2023-02-23T11:39:05;3.30;;;1.10;;
43435;SDS011;36399;51.444;-2.018;2023-02-23T11:42:33;9.53;;;2.97;;
43435;SDS011;36399;51.444;-2.018;2023-02-23T11:44:39;8.27;;;2.10;;
43435;SDS011;36399;51.444;-2.018;2023-02-23T11:47:14;6.20;;;2.07;;
43435;SDS011;36399;51.444;-2.018;2023-02-23T11:49:43;10.97;;;2.00;;
43435;SDS011;36399;51.444;-2.018;2023-02-23T11:52:14;11.50;;;2.60;;
43435;SDS011;36399;51.444;-2.018;2023-02-23T11:54:48;6.07;;;2.03;;
43435;SDS011;36399;51.444;-2.018;2023-02-23T11:57:21;7.83;;;1.87;;
43435;SDS011;36399;51.444;-2.018;2023-02-23T11:59:49;9.17;;;2.63;;
43435;SDS011;36399;51.444;-2.018;2023-02-23T12:04:48;11.20;;;2.13;;
43435;SDS011;36399;51.444;-2.018;2023-02-23T12:07:31;5.87;;;2.97;;
43435;SDS011;36399;51.444;-2.018;2023-02-23T12:12:49;9.27;;;1.77;;
43435;SDS011;36399;51.444;-2.018;2023-02-23T12:15:25;4.93;;;2.03;;
43435;SDS011;36399;51.444;-2.018;2023-02-23T12:18:00;4.00;;;1.57;;
43435;SDS011;36399;51.444;-2.018;2023-02-23T12:20:40;9.03;;;2.20;;
43435;SDS011;36399;51.444;-2.018;2023-02-23T12:23:11;5.37;;;2.47;;
43435;SDS011;36399;51.444;-2.018;2023-02-23T12:28:37;6.57;;;2.10;;
43435;SDS011;36399;51.444;-2.018;2023-02-23T12:31:29;10.47;;;3.70;;
43435;SDS011;36399;51.444;-2.018;2023-02-23T12:34:11;6.40;;;2.00;;
43435;SDS011;36399;51.444;-2.018;2023-02-23T12:36:57;11.73;;;2.73;;
43435;SDS011;36399;51.444;-2.018;2023-02-23T12:39:37;8.33;;;1.80;;
43435;SDS011;36399;51.444;-2.018;2023-02-23T12:45:06;7.23;;;1.63;;
43435;SDS011;36399;51.444;-2.018;2023-02-23T12:47:48;8.10;;;3.73;;
43435;SDS011;36399;51.444;-2.018;2023-02-23T12:50:55;7.87;;;2.47;;
43435;SDS011;36399;51.444;-2.018;2023-02-23T12:53:19;5.73;;;1.83;;
43435;SDS011;36399;51.444;-2.018;2023-02-23T12:58:48;9.50;;;2.60;;
43435;SDS011;36399;51.444;-2.018;2023-02-23T13:04:02;6.37;;;3.77;;
43435;SDS011;36399;51.444;-2.018;2023-02-23T13:15:07;7.93;;;1.93;;
43435;SDS011;36399;51.444;-2.018;2023-02-23T13:17:52;7.00;;;1.50;;
43435;SDS011;36399;51.444;-2.018;2023-02-23T13:20:46;9.77;;;2.20;;
43435;SDS011;36399;51.444;-2.018;2023-02-23T13:23:25;8.37;;;2.00;;
43435;SDS011;36399;51.444;-2.018;2023-02-23T13:26:09;12.00;;;2.80;;
43435;SDS011;36399;51.444;-2.018;2023-02-23T13:31:28;8.77;;;1.93;;
43435;SDS011;36399;51.444;-2.018;2023-02-23T13:33:58;10.17;;;2.60;;
43435;SDS011;36399;51.444;-2.018;2023-02-23T13:36:28;9.97;;;1.97;;
43435;SDS011;36399;51.444;-2.018;2023-02-23T13:41:38;7.97;;;1.93;;
43435;SDS011;36399;51.444;-2.018;2023-02-23T13:50:18;5.60;;;1.83;;
43435;SDS011;36399;51.444;-2.018;2023-02-23T13:52:54;6.60;;;1.47;;
43435;SDS011;36399;51.444;-2.018;2023-02-23T13:58:02;3.60;;;1.27;;
43435;SDS011;36399;51.444;-2.018;2023-02-23T14:00:39;4.63;;;1.67;;
43435;SDS011;36399;51.444;-2.018;2023-02-23T14:03:07;6.33;;;1.70;;
43435;SDS011;36399;51.444;-2.018;2023-02-23T14:05:48;8.73;;;2.33;;
43435;SDS011;36399;51.444;-2.018;2023-02-23T14:08:22;3.77;;;1.63;;
43435;SDS011;36399;51.444;-2.018;2023-02-23T14:10:57;5.33;;;1.20;;
43435;SDS011;36399;51.444;-2.018;2023-02-23T14:13:26;9.17;;;1.37;;
43435;SDS011;36399;51.444;-2.018;2023-02-23T14:16:14;7.17;;;1.73;;
43435;SDS011;36399;51.444;-2.018;2023-02-23T14:18:49;4.63;;;1.50;;
43435;SDS011;36399;51.444;-2.018;2023-02-23T14:21:30;4.67;;;1.53;;
43435;SDS011;36399;51.444;-2.018;2023-02-23T14:24:23;6.63;;;1.37;;
43435;SDS011;36399;51.444;-2.018;2023-02-23T14:29:40;5.70;;;1.97;;
43435;SDS011;36399;51.444;-2.018;2023-02-23T14:39:59;8.23;;;1.67;;
43435;SDS011;36399;51.444;-2.018;2023-02-23T14:42:34;7.60;;;1.37;;
43435;SDS011;36399;51.444;-2.018;2023-02-23T14:45:25;7.27;;;2.27;;
43435;SDS011;36399;51.444;-2.018;2023-02-23T14:47:54;7.63;;;3.00;;
43435;SDS011;36399;51.444;-2.018;2023-02-23T14:52:57;1.93;;;0.90;;
43435;SDS011;36399;51.444;-2.018;2023-02-23T14:55:26;6.37;;;1.70;;
43435;SDS011;36399;51.444;-2.018;2023-02-23T14:57:53;6.40;;;2.00;;
43435;SDS011;36399;51.444;-2.018;2023-02-23T15:03:11;5.03;;;1.97;;
43435;SDS011;36399;51.444;-2.018;2023-02-23T15:05:51;8.73;;;1.53;;
43435;SDS011;36399;51.444;-2.018;2023-02-23T15:08:25;14.33;;;2.90;;
43435;SDS011;36399;51.444;-2.018;2023-02-23T15:11:03;3.40;;;1.67;;
43435;SDS011;36399;51.444;-2.018;2023-02-23T15:16:14;15.13;;;2.30;;
43435;SDS011;36399;51.444;-2.018;2023-02-23T15:42:09;11.70;;;2.23;;
43435;SDS011;36399;51.444;-2.018;2023-02-23T15:44:39;12.70;;;2.57;;
43435;SDS011;36399;51.444;-2.018;2023-02-23T15:49:42;4.13;;;1.50;;
43435;SDS011;36399;51.444;-2.018;2023-02-23T16:08:34;7.03;;;1.50;;
43435;SDS011;36399;51.444;-2.018;2023-02-23T16:14:00;10.53;;;3.20;;
43435;SDS011;36399;51.444;-2.018;2023-02-23T16:16:26;5.03;;;1.30;;
43435;SDS011;36399;51.444;-2.018;2023-02-23T16:18:53;4.97;;;1.40;;
43435;SDS011;36399;51.444;-2.018;2023-02-23T16:21:27;8.93;;;1.70;;
43435;SDS011;36399;51.444;-2.018;2023-02-23T16:23:58;6.07;;;1.50;;
43435;SDS011;36399;51.444;-2.018;2023-02-23T16:29:05;7.77;;;1.70;;
43435;SDS011;36399;51.444;-2.018;2023-02-23T17:00:25;6.63;;;2.27;;
43435;SDS011;36399;51.444;-2.018;2023-02-23T17:24:41;11.73;;;4.07;;
43435;SDS011;36399;51.444;-2.018;2023-02-23T17:48:47;8.53;;;3.03;;
43435;SDS011;36399;51.444;-2.018;2023-02-23T18:42:13;11.67;;;3.40;;
43435;SDS011;36399;51.444;-2.018;2023-02-23T18:44:40;9.50;;;3.50;;
43435;SDS011;36399;51.444;-2.018;2023-02-23T18:47:13;10.87;;;2.77;;
43435;SDS011;36399;51.444;-2.018;2023-02-23T18:49:43;6.17;;;4.00;;
43435;SDS011;36399;51.444;-2.018;2023-02-23T18:52:09;8.30;;;3.90;;
43435;SDS011;36399;51.444;-2.018;2023-02-23T18:54:36;15.03;;;4.27;;
43435;SDS011;36399;51.444;-2.018;2023-02-23T18:57:05;7.77;;;4.10;;
43435;SDS011;36399;51.444;-2.018;2023-02-23T18:59:34;7.97;;;3.87;;
43435;SDS011;36399;51.444;-2.018;2023-02-23T19:02:03;11.67;;;5.07;;
43435;SDS011;36399;51.444;-2.018;2023-02-23T19:04:29;9.83;;;4.90;;
43435;SDS011;36399;51.444;-2.018;2023-02-23T19:06:56;14.33;;;5.30;;
43435;SDS011;36399;51.444;-2.018;2023-02-23T19:11:58;12.83;;;4.47;;
43435;SDS011;36399;51.444;-2.018;2023-02-23T19:22:58;13.00;;;5.53;;
43435;SDS011;36399;51.444;-2.018;2023-02-23T19:33:12;11.90;;;5.00;;
43435;SDS011;36399;51.444;-2.018;2023-02-23T19:46:38;11.57;;;5.53;;
43435;SDS011;36399;51.444;-2.018;2023-02-23T19:49:07;17.43;;;5.43;;
43435;SDS011;36399;51.444;-2.018;2023-02-23T20:09:54;25.90;;;11.40;;
43435;SDS011;36399;51.444;-2.018;2023-02-23T21:53:51;23.17;;;9.83;;
